createdAt,value
2022-11-26T00:01:16.206Z,4.00
2022-11-26T00:06:39.346Z,4.37
2022-11-26T00:11:42.038Z,4.50
2022-11-26T00:16:44.927Z,4.57
2022-11-26T00:21:47.208Z,3.90
2022-11-26T00:26:49.387Z,5.63
2022-11-26T00:31:51.651Z,4.57
2022-11-26T00:36:54.002Z,4.70
2022-11-26T00:41:56.187Z,4.87
2022-11-26T00:46:58.445Z,3.90
2022-11-26T00:52:00.668Z,5.63
2022-11-26T00:57:02.886Z,4.37
2022-11-26T01:02:08.147Z,5.10
2022-11-26T01:07:11.166Z,5.40
2022-11-26T01:12:14.854Z,4.97
2022-11-26T01:17:17.188Z,4.33
2022-11-26T01:22:23.543Z,4.93
2022-11-26T01:27:25.840Z,4.33
2022-11-26T01:32:29.615Z,5.03
2022-11-26T01:37:32.023Z,5.40
2022-11-26T01:42:45.582Z,5.53
2022-11-26T01:47:48.924Z,4.87
2022-11-26T01:52:51.453Z,5.53
2022-11-26T01:57:53.856Z,4.70
2022-11-26T02:02:56.174Z,6.33
2022-11-26T02:07:58.490Z,5.03
2022-11-26T02:13:00.903Z,4.70
2022-11-26T02:18:06.256Z,5.33
2022-11-26T02:23:29.089Z,4.87
2022-11-26T02:29:09.072Z,4.00
2022-11-26T02:34:23.113Z,4.35
2022-11-26T02:39:28.751Z,5.87
2022-11-26T02:44:41.934Z,4.03
2022-11-26T02:49:45.356Z,4.07
2022-11-26T02:54:49.171Z,4.03
2022-11-26T02:59:51.539Z,4.20
2022-11-26T03:04:57.396Z,4.80
2022-11-26T03:10:01.134Z,5.03
2022-11-26T03:15:06.248Z,4.40
2022-11-26T03:20:09.086Z,4.23
2022-11-26T03:25:11.541Z,4.03
2022-11-26T03:30:14.180Z,4.00
2022-11-26T03:35:16.555Z,4.30
2022-11-26T03:40:19.216Z,4.47
2022-11-26T03:45:21.459Z,4.20
2022-11-26T03:50:23.743Z,5.13
2022-11-26T03:55:26.005Z,5.17
2022-11-26T04:00:28.300Z,5.03
2022-11-26T04:05:31.606Z,4.13
2022-11-26T04:10:33.995Z,6.13
2022-11-26T04:15:36.279Z,4.57
2022-11-26T04:20:38.550Z,4.57
2022-11-26T04:25:40.834Z,4.50
2022-11-26T04:30:43.940Z,5.13
2022-11-26T04:35:46.388Z,4.80
2022-11-26T04:40:49.166Z,4.23
2022-11-26T04:45:51.482Z,4.20
2022-11-26T04:50:53.702Z,4.17
2022-11-26T04:55:55.889Z,3.80
2022-11-26T05:00:58.527Z,4.30
2022-11-26T05:06:00.883Z,4.03
2022-11-26T05:11:03.531Z,5.37
2022-11-26T05:16:06.014Z,4.27
2022-11-26T05:21:08.488Z,4.10
2022-11-26T05:26:10.997Z,3.93
2022-11-26T05:31:13.514Z,5.17
2022-11-26T05:36:16.043Z,4.90
2022-11-26T05:41:18.339Z,5.47
2022-11-26T05:46:20.735Z,3.73
2022-11-26T05:51:23.075Z,3.80
2022-11-26T05:56:25.462Z,3.50
2022-11-26T06:01:27.749Z,3.43
2022-11-26T06:06:30.555Z,2.90
2022-11-26T06:11:32.800Z,2.83
2022-11-26T06:16:35.109Z,2.87
2022-11-26T06:21:37.885Z,2.67
2022-11-26T06:26:40.943Z,2.27
2022-11-26T06:31:43.183Z,2.67
2022-11-26T06:36:45.656Z,2.37
2022-11-26T06:41:48.018Z,2.70
2022-11-26T06:46:50.250Z,2.87
2022-11-26T06:51:54.013Z,2.43
2022-11-26T06:56:56.768Z,3.73
2022-11-26T07:01:59.176Z,3.23
2022-11-26T07:07:01.533Z,3.40
2022-11-26T07:12:04.390Z,4.07
2022-11-26T07:17:06.756Z,4.60
2022-11-26T07:22:08.984Z,4.23
2022-11-26T07:27:11.157Z,4.33
2022-11-26T07:32:13.507Z,3.80
2022-11-26T07:37:16.941Z,3.60
2022-11-26T07:42:19.144Z,3.30
2022-11-26T07:47:21.475Z,4.20
2022-11-26T07:52:23.789Z,3.60
2022-11-26T07:57:26.159Z,4.00
2022-11-26T08:02:28.389Z,4.27
2022-11-26T08:07:30.745Z,3.90
2022-11-26T08:12:33.018Z,3.87
2022-11-26T08:17:35.305Z,4.00
2022-11-26T08:22:37.603Z,4.07
2022-11-26T08:27:39.775Z,3.63
2022-11-26T08:32:42.006Z,3.77
2022-11-26T08:37:44.267Z,4.17
2022-11-26T08:42:46.534Z,4.20
2022-11-26T08:47:48.873Z,3.97
2022-11-26T08:52:53.331Z,5.10
2022-11-26T08:57:55.603Z,3.83
2022-11-26T09:02:57.941Z,4.87
2022-11-26T09:08:00.389Z,5.27
2022-11-26T09:13:02.671Z,5.03
2022-11-26T09:18:05.084Z,6.17
2022-11-26T09:23:07.305Z,4.77
2022-11-26T09:28:09.595Z,5.03
2022-11-26T09:33:11.773Z,4.60
2022-11-26T09:38:14.066Z,4.90
2022-11-26T09:43:53.337Z,4.80
2022-11-26T09:48:56.068Z,5.80
2022-11-26T09:53:58.701Z,5.50
2022-11-26T09:59:05.793Z,5.60
2022-11-26T10:04:17.371Z,5.30
2022-11-26T10:09:57.158Z,5.17
2022-11-26T10:15:18.242Z,5.25
2022-11-26T10:20:38.377Z,4.93
2022-11-26T10:25:45.542Z,4.60
2022-11-26T10:30:56.758Z,6.17
2022-11-26T10:35:59.081Z,6.00
2022-11-26T10:41:01.409Z,4.97
2022-11-26T10:46:03.865Z,4.60
2022-11-26T10:51:30.466Z,5.90
2022-11-26T10:56:37.169Z,4.83
2022-11-26T11:01:40.300Z,5.93
2022-11-26T11:06:44.132Z,5.10
2022-11-26T11:11:46.388Z,4.80
2022-11-26T11:16:52.579Z,4.63
2022-11-26T11:21:55.038Z,4.97
2022-11-26T11:27:00.449Z,5.60
2022-11-26T11:32:28.037Z,5.57
2022-11-26T11:37:30.274Z,4.73
2022-11-26T11:42:32.644Z,5.10
2022-11-26T11:47:37.283Z,5.17
2022-11-26T11:52:39.431Z,5.63
2022-11-26T11:58:11.977Z,7.43
2022-11-26T12:03:41.685Z,5.53
2022-11-26T12:09:20.483Z,5.13
2022-11-26T12:15:05.442Z,5.53
2022-11-26T12:20:31.323Z,5.13
2022-11-26T12:25:37.117Z,4.67
2022-11-26T12:31:06.105Z,4.57
2022-11-26T12:36:17.722Z,4.60
2022-11-26T12:41:21.889Z,4.70
2022-11-26T12:46:35.217Z,5.07
2022-11-26T12:51:43.260Z,5.53
2022-11-26T12:57:01.078Z,4.67
2022-11-26T13:02:26.438Z,4.77
2022-11-26T13:07:48.046Z,5.13
2022-11-26T13:13:06.979Z,5.90
2022-11-26T13:18:34.303Z,5.30
2022-11-26T13:24:01.400Z,4.60
2022-11-26T13:29:06.829Z,5.80
2022-11-26T13:34:30.438Z,4.50
2022-11-26T13:39:54.516Z,6.07
2022-11-26T13:45:19.850Z,5.33
2022-11-26T13:50:42.223Z,5.87
2022-11-26T13:55:48.011Z,5.37
2022-11-26T14:00:50.326Z,4.57
2022-11-26T14:05:52.609Z,5.13
2022-11-26T14:10:54.878Z,5.30
2022-11-26T14:16:03.098Z,6.03
2022-11-26T14:21:11.854Z,6.00
2022-11-26T14:26:22.611Z,7.30
2022-11-26T14:31:28.314Z,6.23
2022-11-26T14:36:31.495Z,8.17
2022-11-26T14:42:03.788Z,6.60
2022-11-26T14:47:20.758Z,5.73
2022-11-26T14:52:26.852Z,6.70
2022-11-26T14:57:38.052Z,6.23
2022-11-26T15:02:43.272Z,7.17
2022-11-26T15:07:46.414Z,6.33
2022-11-26T15:12:50.872Z,5.83
2022-11-26T15:17:58.655Z,7.07
2022-11-26T15:23:03.015Z,6.10
2022-11-26T15:28:09.734Z,6.97
2022-11-26T15:33:17.847Z,6.93
2022-11-26T15:38:21.242Z,7.37
2022-11-26T15:43:32.652Z,6.67
2022-11-26T15:48:53.822Z,6.43
2022-11-26T15:53:56.266Z,7.30
2022-11-26T15:59:02.458Z,8.07
2022-11-26T16:04:06.691Z,7.67
2022-11-26T16:09:17.627Z,6.77
2022-11-26T16:14:35.383Z,7.53
2022-11-26T16:19:38.246Z,8.10
2022-11-26T16:24:46.088Z,7.33
2022-11-26T16:29:48.538Z,7.30
2022-11-26T16:34:50.801Z,6.67
2022-11-26T16:40:10.048Z,8.60
2022-11-26T16:45:14.708Z,8.38
2022-11-26T16:50:19.475Z,7.27
2022-11-26T16:55:27.382Z,7.57
2022-11-26T17:00:29.715Z,6.60
2022-11-26T17:05:32.040Z,8.20
2022-11-26T17:10:34.367Z,7.77
2022-11-26T17:15:36.690Z,6.87
2022-11-26T17:20:39.093Z,8.37
2022-11-26T17:25:44.069Z,7.30
2022-11-26T17:30:48.617Z,7.87
2022-11-26T17:35:51.002Z,7.47
2022-11-26T17:40:53.396Z,7.57
2022-11-26T17:45:59.498Z,7.97
2022-11-26T17:51:01.882Z,8.73
2022-11-26T17:56:04.954Z,7.80
2022-11-26T18:01:07.383Z,7.83
2022-11-26T18:06:17.632Z,7.90
2022-11-26T18:11:19.919Z,7.03
2022-11-26T18:16:22.271Z,6.93
2022-11-26T18:21:24.578Z,7.33
2022-11-26T18:26:28.487Z,6.87
2022-11-26T18:31:37.967Z,7.10
2022-11-26T18:36:42.377Z,7.70
2022-11-26T18:41:44.766Z,6.90
2022-11-26T18:46:47.186Z,7.03
2022-11-26T18:51:49.649Z,7.90
2022-11-26T18:56:52.240Z,7.83
2022-11-26T19:01:54.509Z,8.13
2022-11-26T19:06:56.866Z,6.07
2022-11-26T19:11:59.159Z,6.63
2022-11-26T19:17:01.532Z,6.77
2022-11-26T19:22:03.916Z,7.63
2022-11-26T19:27:06.157Z,7.30
2022-11-26T19:32:10.635Z,7.37
2022-11-26T19:37:12.932Z,7.10
2022-11-26T19:42:15.252Z,6.53
2022-11-26T19:47:17.584Z,6.60
2022-11-26T19:52:19.873Z,6.63
2022-11-26T19:57:22.077Z,7.07
2022-11-26T20:02:24.434Z,7.10
2022-11-26T20:07:26.818Z,6.90
2022-11-26T20:12:32.567Z,7.17
2022-11-26T20:17:34.790Z,7.90
2022-11-26T20:22:37.843Z,6.93
2022-11-26T20:27:40.332Z,7.57
2022-11-26T20:32:42.566Z,7.23
2022-11-26T20:37:44.853Z,7.33
2022-11-26T20:42:47.063Z,6.30
2022-11-26T20:47:53.487Z,7.13
2022-11-26T20:52:55.900Z,6.93
2022-11-26T20:57:59.126Z,6.50
2022-11-26T21:03:01.366Z,6.47
2022-11-26T21:08:03.821Z,6.50
2022-11-26T21:13:06.800Z,6.60
2022-11-26T21:18:09.677Z,6.50
2022-11-26T21:23:13.267Z,8.67
2022-11-26T21:28:15.616Z,7.77
2022-11-26T21:33:17.872Z,6.90
2022-11-26T21:38:23.903Z,7.23
2022-11-26T21:43:28.707Z,6.80
2022-11-26T21:48:31.459Z,6.73
2022-11-26T21:53:34.078Z,6.97
2022-11-26T21:58:37.369Z,6.53
2022-11-26T22:03:42.634Z,7.53
2022-11-26T22:08:47.594Z,6.83
2022-11-26T22:13:50.125Z,9.23
2022-11-26T22:18:53.563Z,7.00
2022-11-26T22:23:56.369Z,7.37
2022-11-26T22:28:58.837Z,7.50
2022-11-26T22:34:22.353Z,6.13
2022-11-26T22:39:24.580Z,6.50
2022-11-26T22:44:26.863Z,6.13
2022-11-26T22:49:29.144Z,5.80
2022-11-26T22:54:31.469Z,6.20
2022-11-26T22:59:33.618Z,6.23
2022-11-26T23:04:35.882Z,5.80
2022-11-26T23:09:42.457Z,5.87
2022-11-26T23:14:47.598Z,6.07
2022-11-26T23:19:49.832Z,7.40
2022-11-26T23:24:52.125Z,6.97
2022-11-26T23:29:54.538Z,6.00
2022-11-26T23:34:56.825Z,5.57
2022-11-26T23:39:59.030Z,6.60
2022-11-26T23:45:01.572Z,6.03
2022-11-26T23:50:06.378Z,4.87
2022-11-26T23:55:09.274Z,6.10
